CYQW - North Battleford Airport

Pirep is a free, collaborative database of all public and private airports located within the United States. All pilots are welcome to contribute, edit, and improve any airport they have local knowledge about, no registration required.
Are you familiar with this airport? Help out other pilots by adding your local knowledge.
Uploaded photos will be licensed under a CC BY-SA 4.0 license. Please only upload photos you have the rights to use.
Tags
Public
Undocu­mented
METAR / TAF
Webcam
Edit Tags
Food
Camping
Lodging
Car Rental
Bicycles
Swimming
Golfing
Fishing
Hot Springs
Museum
Flying Clubs
Airpark
Upcoming Events
No upcoming events. Is anything happening here soon?
*
*
*

Where exactly on/near the airport is this event taking place?

Is there a webpage with more information for this event?

Who should be contacted for more information?

What is this event all about?

Repeat every
Description
Transient Parking
Fuel Location
Landing & Tie-down Fees
Crew Car Availability
Flying Clubs
WiFi Access
Airport Statistics
Location: North Battleford, Saskatchewan
Elevation: 1,799ft
Runway 12/30: 5,000ft
Runway 06/24: 2,565ft
Warning: This airport was imported from a non-authoritative source. It's public/private status may not be accurate.
Access: Open to the public
Current Weather — VFR
  • Weather data is strictly informational and not for flight planning purposes.
  • METAR
    2024-06-17 06:00:00 CST
    Ceiling Wind Temperature Dewpoint Weather Visbility
    11,000ft 270° @ 10kt 46°F 39°F N/A 9SM
    Clouds: Scattered @ 6,000ft, Broken @ 11,000ft
    Raw: CYQW 171200Z AUTO 27010KT 9SM SCT060 BKN110 08/04 A2973 RMK SLP082
  • TAF
    2024-06-17 06:00:00 CST – 2024-06-17 10:00:00 CST
    Ceiling Wind Weather Visbility
    10,000ft 240° @ 8kt N/A 6SM
    Clouds: Overcast @ 10,000ft
    Raw: TAF CYQW 171140Z 1712/1724 24008KT P6SM OVC100 FM171600 29012KT P6SM SCT080 RMK FCST BASED ON AUTO OBS. NXT FCST BY 171800Z
  • TAF
    2024-06-17 10:00:00 CST – 2024-06-17 18:00:00 CST
    Ceiling Wind Weather Visbility
    Sky clear 290° @ 12kt N/A 6SM
    Clouds: Scattered @ 8,000ft
    Raw: TAF CYQW 171140Z 1712/1724 24008KT P6SM OVC100 FM171600 29012KT P6SM SCT080 RMK FCST BASED ON AUTO OBS. NXT FCST BY 171800Z
Click/tap to add an annotation marker to the map
Direct links to live image URLs will be displayed inline on this page. URLs to separate webpages will be linked to.
URL:
Direct links to live image URLs will be displayed inline on this page. URLs to separate webpages will be linked to.
URL:
Comments
Leave a comment What was your experience like at this airport?